createdAt,value
2022-11-04T00:03:56.525Z,98.81
2022-11-04T00:08:58.350Z,98.88
2022-11-04T00:13:59.670Z,98.96
2022-11-04T00:19:00.977Z,98.97
2022-11-04T00:24:21.791Z,98.93
2022-11-04T00:29:22.889Z,99.20
2022-11-04T00:34:23.798Z,99.27
2022-11-04T00:39:24.788Z,99.53
2022-11-04T00:44:26.238Z,99.43
2022-11-04T00:49:27.259Z,99.43
2022-11-04T00:54:28.251Z,99.46
2022-11-04T00:59:29.271Z,99.37
2022-11-04T01:04:30.284Z,99.40
2022-11-04T01:09:31.652Z,99.04
2022-11-04T01:14:33.022Z,98.63
2022-11-04T01:19:33.972Z,98.43
2022-11-04T01:24:35.120Z,98.19
2022-11-04T01:29:36.860Z,97.91
2022-11-04T01:34:42.382Z,97.99
2022-11-04T01:39:44.749Z,97.73
2022-11-04T01:44:47.919Z,97.50
2022-11-04T01:49:54.246Z,97.13
2022-11-04T01:54:58.810Z,96.78
2022-11-04T02:00:03.838Z,96.45
2022-11-04T02:05:05.308Z,96.09
2022-11-04T02:10:07.489Z,95.60
2022-11-04T02:15:08.748Z,95.01
2022-11-04T02:20:24.197Z,94.37
2022-11-04T02:26:02.588Z,94.01
2022-11-04T02:31:31.436Z,93.92
2022-11-04T02:36:45.784Z,93.54
2022-11-04T02:41:58.649Z,93.21
2022-11-04T02:47:02.312Z,92.83
2022-11-04T02:52:07.704Z,92.69
2022-11-04T02:57:15.049Z,92.39
2022-11-04T03:02:26.437Z,91.75
2022-11-04T03:07:33.484Z,91.51
2022-11-04T03:12:57.799Z,91.06
2022-11-04T03:18:15.247Z,90.82
2022-11-04T03:23:17.172Z,90.31
2022-11-04T03:28:42.552Z,90.08
2022-11-04T03:33:49.788Z,89.61
2022-11-04T03:38:52.043Z,89.12
2022-11-04T03:43:53.072Z,89.06
2022-11-04T03:48:54.831Z,89.15
2022-11-04T03:53:57.198Z,89.15
2022-11-04T03:59:06.919Z,88.57
2022-11-04T04:04:16.582Z,88.05
2022-11-04T04:09:50.820Z,87.67
2022-11-04T04:15:02.411Z,87.41
2022-11-04T04:20:15.122Z,87.38
2022-11-04T04:25:35.584Z,87.33
2022-11-04T04:30:37.726Z,87.02
2022-11-04T04:35:43.938Z,86.65
2022-11-04T04:41:13.551Z,86.64
2022-11-04T04:46:14.917Z,86.46
2022-11-04T04:51:15.977Z,86.28
2022-11-04T04:56:17.189Z,86.22
2022-11-04T05:01:18.304Z,86.21
2022-11-04T05:06:19.663Z,86.18
2022-11-04T05:11:24.369Z,86.09
2022-11-04T05:16:28.438Z,86.18
2022-11-04T05:21:29.441Z,86.19
2022-11-04T05:26:30.431Z,86.10
2022-11-04T05:31:31.593Z,86.16
2022-11-04T05:36:32.500Z,86.37
2022-11-04T05:41:34.270Z,86.34
2022-11-04T05:46:35.870Z,86.34
2022-11-04T05:51:37.089Z,86.32
2022-11-04T05:56:38.369Z,86.26
2022-11-04T06:01:43.109Z,86.21
2022-11-04T06:06:44.497Z,86.23
2022-11-04T06:11:45.880Z,86.16
2022-11-04T06:16:47.073Z,86.11
2022-11-04T06:21:48.086Z,86.18
2022-11-04T06:26:49.123Z,86.24
2022-11-04T06:31:50.380Z,86.17
2022-11-04T06:36:52.475Z,86.03
2022-11-04T06:41:55.504Z,85.77
2022-11-04T06:46:59.046Z,85.60
2022-11-04T06:52:01.675Z,85.36
2022-11-04T06:57:03.442Z,85.17
2022-11-04T07:02:05.183Z,84.79
2022-11-04T07:07:06.461Z,84.76
2022-11-04T07:12:07.486Z,84.63
2022-11-04T07:17:08.542Z,84.11
2022-11-04T07:22:10.539Z,83.75
2022-11-04T07:27:11.616Z,83.82
2022-11-04T07:32:12.775Z,83.58
2022-11-04T07:37:13.824Z,83.26
2022-11-04T07:42:14.904Z,82.97
2022-11-04T07:47:15.923Z,82.65
2022-11-04T07:52:17.049Z,82.86
2022-11-04T07:57:19.158Z,82.83
2022-11-04T08:02:25.949Z,82.41
2022-11-04T08:07:29.948Z,82.36
2022-11-04T08:12:31.880Z,82.68
2022-11-04T08:17:32.896Z,82.75
2022-11-04T08:22:34.017Z,83.14
2022-11-04T08:27:35.018Z,83.27
2022-11-04T08:32:36.277Z,83.57
2022-11-04T08:37:37.901Z,83.68
2022-11-04T08:42:39.250Z,83.69
2022-11-04T08:47:40.171Z,83.67
2022-11-04T08:52:41.212Z,83.72
2022-11-04T08:57:42.172Z,83.41
2022-11-04T09:02:43.484Z,83.33
2022-11-04T09:07:44.521Z,83.06
2022-11-04T09:12:46.033Z,83.18
2022-11-04T09:17:47.051Z,83.05
2022-11-04T09:22:50.132Z,82.92
2022-11-04T09:27:51.171Z,83.01
2022-11-04T09:32:52.999Z,82.62
2022-11-04T09:37:55.066Z,82.62
2022-11-04T09:43:33.551Z,82.32
2022-11-04T09:48:41.220Z,81.86
2022-11-04T09:53:49.965Z,81.45
2022-11-04T09:58:51.562Z,81.19
2022-11-04T10:04:09.073Z,80.14
2022-11-04T10:09:22.910Z,79.24
2022-11-04T10:14:45.472Z,79.05
2022-11-04T10:20:05.449Z,78.79
2022-11-04T10:25:22.611Z,78.44
2022-11-04T10:30:25.488Z,78.36
2022-11-04T10:35:38.963Z,77.34
2022-11-04T10:40:41.550Z,76.60
2022-11-04T10:46:00.448Z,76.37
2022-11-04T10:51:02.310Z,76.48
2022-11-04T10:56:06.671Z,75.74
2022-11-04T11:01:31.551Z,75.06
2022-11-04T11:06:35.185Z,74.64
2022-11-04T11:11:44.681Z,74.50
2022-11-04T11:16:47.341Z,74.72
2022-11-04T11:21:49.873Z,74.99
2022-11-04T11:27:00.376Z,75.56
2022-11-04T11:32:01.574Z,75.61
2022-11-04T11:37:04.361Z,75.89
2022-11-04T11:42:10.585Z,76.11
2022-11-04T11:47:35.614Z,76.05
2022-11-04T11:52:37.579Z,75.33
2022-11-04T12:03:13.489Z,73.61
2022-11-04T12:14:10.295Z,72.62
2022-11-04T12:19:40.929Z,72.10
2022-11-04T12:25:08.948Z,71.81
2022-11-04T12:30:22.546Z,71.88
2022-11-04T12:35:32.328Z,71.97
2022-11-04T12:40:41.451Z,72.10
2022-11-04T12:46:04.424Z,72.03
2022-11-04T12:51:50.766Z,71.65
2022-11-04T12:57:12.092Z,70.33
2022-11-04T13:02:27.904Z,70.08
2022-11-04T13:07:53.293Z,69.55
2022-11-04T13:12:56.279Z,69.11
2022-11-04T13:18:05.985Z,68.56
2022-11-04T13:23:15.901Z,68.83
2022-11-04T13:28:19.489Z,68.72
2022-11-04T13:33:45.746Z,69.07
2022-11-04T13:38:56.922Z,69.75
2022-11-04T13:44:03.825Z,70.32
2022-11-04T13:49:31.641Z,70.88
2022-11-04T13:54:35.030Z,70.83
2022-11-04T13:59:36.402Z,70.77
2022-11-04T14:04:42.100Z,71.05
2022-11-04T14:09:46.146Z,71.44
2022-11-04T14:14:51.520Z,71.43
2022-11-04T14:19:55.509Z,71.90
2022-11-04T14:25:18.116Z,72.18
2022-11-04T14:30:38.143Z,72.86
2022-11-04T14:35:39.196Z,73.35
2022-11-04T14:40:51.625Z,73.28
2022-11-04T14:45:54.599Z,73.38
2022-11-04T14:50:56.563Z,73.38
2022-11-04T14:56:23.752Z,73.57
2022-11-04T15:01:34.182Z,73.88
2022-11-04T15:06:53.430Z,73.96
2022-11-04T15:12:26.754Z,74.04
2022-11-04T15:17:32.799Z,74.27
2022-11-04T15:22:35.058Z,74.73
2022-11-04T15:27:36.622Z,75.27
2022-11-04T15:32:37.734Z,75.88
2022-11-04T15:37:40.880Z,76.46
2022-11-04T15:42:43.847Z,76.98
2022-11-04T15:47:44.894Z,77.29
2022-11-04T15:52:49.378Z,77.59
2022-11-04T15:57:51.054Z,78.03
2022-11-04T16:02:54.998Z,78.40
2022-11-04T16:08:21.273Z,78.68
2022-11-04T16:13:25.360Z,79.14
2022-11-04T16:18:51.507Z,79.37
2022-11-04T16:24:30.926Z,79.66
2022-11-04T16:29:36.169Z,79.87
2022-11-04T16:34:38.135Z,80.17
2022-11-04T16:39:40.114Z,80.42
2022-11-04T16:44:50.721Z,80.72
2022-11-04T16:49:51.766Z,80.79
2022-11-04T16:54:55.489Z,80.90
2022-11-04T16:59:57.319Z,81.08
2022-11-04T17:04:58.709Z,81.24
2022-11-04T17:09:59.923Z,81.40
2022-11-04T17:15:00.990Z,81.52
2022-11-04T17:20:02.117Z,81.57
2022-11-04T17:25:03.812Z,81.68
2022-11-04T17:30:07.046Z,81.72
2022-11-04T17:35:09.843Z,81.79
2022-11-04T17:40:17.429Z,81.83
2022-11-04T17:45:19.918Z,81.75
2022-11-04T17:50:22.379Z,81.85
2022-11-04T17:55:27.468Z,81.76
2022-11-04T18:00:29.042Z,81.80
2022-11-04T18:05:30.044Z,81.88
2022-11-04T18:10:31.366Z,81.98
2022-11-04T18:15:32.403Z,82.10
2022-11-04T18:20:34.747Z,82.13
2022-11-04T18:25:38.333Z,82.27
2022-11-04T18:30:40.428Z,82.30
2022-11-04T18:35:41.405Z,82.35
2022-11-04T18:40:43.031Z,82.38
2022-11-04T18:45:44.067Z,82.48
2022-11-04T18:50:45.634Z,82.52
2022-11-04T18:55:46.668Z,82.62
2022-11-04T19:00:48.212Z,82.56
2022-11-04T19:05:49.306Z,82.68
2022-11-04T19:11:01.091Z,82.70
2022-11-04T19:16:05.900Z,82.79
2022-11-04T19:21:09.583Z,82.88
2022-11-04T19:26:16.751Z,82.83
2022-11-04T19:31:23.550Z,82.89
2022-11-04T19:36:27.828Z,82.94
2022-11-04T19:41:48.496Z,83.03
2022-11-04T19:46:50.052Z,83.17
2022-11-04T19:51:51.290Z,83.28
2022-11-04T19:56:52.406Z,83.43
2022-11-04T20:01:53.521Z,83.54
2022-11-04T20:06:54.593Z,83.62
2022-11-04T20:12:14.490Z,83.76
2022-11-04T20:17:15.502Z,83.85
2022-11-04T20:22:16.617Z,84.02
2022-11-04T20:27:18.388Z,84.48
2022-11-04T20:32:20.243Z,85.11
2022-11-04T20:37:21.601Z,85.74
2022-11-04T20:42:22.855Z,86.40
2022-11-04T20:47:23.884Z,86.92
2022-11-04T20:52:25.622Z,87.61
2022-11-04T20:57:27.716Z,88.31
2022-11-04T21:02:29.134Z,88.72
2022-11-04T21:07:30.575Z,89.25
2022-11-04T21:12:31.646Z,89.60
2022-11-04T21:17:37.431Z,89.64
2022-11-04T21:22:41.023Z,89.75
2022-11-04T21:27:42.468Z,90.03
2022-11-04T21:32:43.543Z,90.18
2022-11-04T21:37:44.531Z,90.51
2022-11-04T21:42:45.679Z,90.67
2022-11-04T21:47:46.727Z,90.83
2022-11-04T21:52:47.659Z,91.09
2022-11-04T21:57:48.688Z,91.42
2022-11-04T22:02:50.148Z,91.83
2022-11-04T22:08:09.899Z,92.42
2022-11-04T22:13:11.328Z,93.09
2022-11-04T22:18:15.034Z,93.50
2022-11-04T22:23:16.095Z,93.90
2022-11-04T22:28:18.535Z,94.28
2022-11-04T22:33:19.889Z,94.63
2022-11-04T22:38:20.914Z,95.07
2022-11-04T22:43:24.421Z,95.29
2022-11-04T22:48:25.484Z,95.71
2022-11-04T22:53:28.893Z,95.95
2022-11-04T22:58:30.035Z,96.32
2022-11-04T23:03:31.712Z,96.66
2022-11-04T23:08:35.130Z,96.99
2022-11-04T23:13:54.665Z,97.28
2022-11-04T23:18:56.866Z,97.65
2022-11-04T23:24:17.234Z,97.74
2022-11-04T23:29:37.483Z,97.84
2022-11-04T23:34:57.070Z,98.15
2022-11-04T23:39:58.119Z,98.43
2022-11-04T23:45:17.880Z,98.56
2022-11-04T23:50:37.866Z,98.82
2022-11-04T23:55:56.883Z,99.08
